KMXF

Maxwell AFB Airport

Montgomery, Alabama, USA
METAR KMXF 170056Z AUTO 35008KT 10SM BKN039 OVC049 26/22 A3010 RMK AO2 SLP194 T02570222 $
Observed Flight Rules
Oct-17 @ 00:56 UTC (29 minutes ago) Visual Flight Rules
Wind Visibility Clouds
350° at 8 knots 10 miles
  • Broken at 3,900' AGL
  • Overcast at 4,900' AGL
Temperatures Readings
Current 26°C / 79°F
Dewpoint 22°C / 72°F
Humidity 79%
Altimeter 30.1" Hg
Pressure 1019.4 hPa
Elevation 51
METAR KMXF 170056Z AUTO 35008KT 10SM BKN039 OVC049 26/22 A3010 RMK AO2 SLP194 T02570222 $
Observed Flight Rules
Oct-17 @ 00:56 UTC
(29 minutes ago)
VFR
Wind Visibility
350° at 8 knots 10 miles
Clouds
  • Broken at 3,900' AGL
  • Overcast at 4,900' AGL
Temperature Dewpoint
26°C / 79°F 22°C / 72°F
Humidity Altimeter Pressure
79% 30.1" Hg 1019.4 hPa